createdAt,value
2023-03-21T00:00:37.197Z,8.96
2023-03-21T00:03:41.248Z,9.02
2023-03-21T00:06:44.326Z,9.02
2023-03-21T00:09:47.544Z,8.94
2023-03-21T00:12:55.515Z,9.12
2023-03-21T00:16:17.735Z,9.08
2023-03-21T00:19:26.420Z,8.90
2023-03-21T00:22:29.624Z,9.08
2023-03-21T00:25:33.248Z,9.09
2023-03-21T00:28:45.918Z,8.96
2023-03-21T00:31:48.855Z,9.04
2023-03-21T00:35:11.933Z,9.09
2023-03-21T00:38:15.564Z,9.20
2023-03-21T00:41:31.688Z,9.25
2023-03-21T00:44:43.066Z,9.08
2023-03-21T00:47:46.387Z,9.18
2023-03-21T00:50:52.603Z,9.25
2023-03-21T00:53:58.588Z,9.22
2023-03-21T00:57:03.753Z,9.26
2023-03-21T01:00:10.849Z,9.22
2023-03-21T01:03:24.289Z,9.44
2023-03-21T01:06:29.182Z,9.42
2023-03-21T01:09:34.024Z,9.44
2023-03-21T01:12:37.184Z,9.30
2023-03-21T01:15:46.975Z,9.21
2023-03-21T01:18:51.544Z,9.20
2023-03-21T01:21:56.774Z,9.09
2023-03-21T01:25:12.187Z,9.13
2023-03-21T01:28:28.723Z,9.02
2023-03-21T01:31:32.230Z,8.91
2023-03-21T01:34:35.181Z,8.87
2023-03-21T01:37:38.401Z,9.03
2023-03-21T01:40:42.283Z,9.14
2023-03-21T01:43:46.245Z,9.24
2023-03-21T01:47:12.451Z,9.26
2023-03-21T01:50:18.356Z,9.32
2023-03-21T01:53:24.171Z,9.36
2023-03-21T01:56:34.135Z,9.25
2023-03-21T01:59:46.144Z,9.21
2023-03-21T02:03:11.571Z,9.42
2023-03-21T02:06:49.156Z,9.39
2023-03-21T02:09:53.979Z,9.36
2023-03-21T02:13:08.216Z,9.39
2023-03-21T02:16:15.433Z,9.35
2023-03-21T02:19:41.687Z,9.43
2023-03-21T02:23:15.668Z,9.36
2023-03-21T02:27:03.548Z,9.30
2023-03-21T02:30:26.472Z,9.35
2023-03-21T02:33:54.459Z,9.28
2023-03-21T02:37:03.633Z,9.21
2023-03-21T02:40:11.315Z,9.18
2023-03-21T02:43:40.520Z,9.21
2023-03-21T02:47:04.564Z,9.12
2023-03-21T02:50:16.516Z,9.06
2023-03-21T02:53:22.089Z,9.16
2023-03-21T02:56:27.378Z,8.89
2023-03-21T02:59:33.932Z,9.06
2023-03-21T03:02:38.364Z,9.13
2023-03-21T03:05:48.582Z,9.09
2023-03-21T03:09:43.358Z,9.11
2023-03-21T03:12:59.820Z,9.16
2023-03-21T03:16:22.038Z,9.12
2023-03-21T03:19:49.951Z,9.24
2023-03-21T03:22:53.725Z,9.01
2023-03-21T03:26:08.924Z,9.08
2023-03-21T03:29:18.631Z,9.18
2023-03-21T03:32:27.305Z,9.16
2023-03-21T03:35:30.838Z,9.08
2023-03-21T03:38:35.503Z,8.96
2023-03-21T03:42:07.915Z,9.06
2023-03-21T03:45:13.566Z,8.94
2023-03-21T03:48:26.910Z,8.82
2023-03-21T03:51:39.202Z,8.87
2023-03-21T03:54:48.613Z,8.87
2023-03-21T03:57:53.162Z,8.75
2023-03-21T04:00:56.912Z,8.92
2023-03-21T04:04:12.295Z,8.93
2023-03-21T04:07:16.735Z,8.81
2023-03-21T04:10:20.872Z,8.87
2023-03-21T04:13:24.796Z,8.86
2023-03-21T04:16:35.827Z,8.82
2023-03-21T04:19:39.309Z,8.76
2023-03-21T04:22:42.892Z,8.70
2023-03-21T04:25:55.838Z,8.60
2023-03-21T04:29:03.603Z,8.56
2023-03-21T04:32:16.494Z,8.45
2023-03-21T04:35:21.091Z,8.35
2023-03-21T04:38:26.613Z,8.18
2023-03-21T04:41:31.029Z,8.19
2023-03-21T04:44:35.349Z,8.26
2023-03-21T04:47:38.639Z,8.25
2023-03-21T04:50:42.584Z,8.30
2023-03-21T04:53:47.118Z,8.28
2023-03-21T04:56:49.868Z,8.26
2023-03-21T04:59:53.168Z,8.18
2023-03-21T05:02:58.766Z,8.16
2023-03-21T05:06:03.287Z,8.13
2023-03-21T05:09:07.216Z,8.12
2023-03-21T05:12:10.581Z,8.12
2023-03-21T05:15:13.637Z,8.11
2023-03-21T05:18:25.014Z,8.16
2023-03-21T05:21:42.906Z,8.15
2023-03-21T05:24:50.454Z,8.20
2023-03-21T05:27:56.131Z,8.24
2023-03-21T05:31:00.496Z,8.31
2023-03-21T05:34:05.400Z,8.34
2023-03-21T05:37:08.535Z,8.32
2023-03-21T05:40:13.085Z,8.38
2023-03-21T05:43:18.062Z,8.43
2023-03-21T05:46:21.966Z,8.47
2023-03-21T05:49:27.141Z,8.50
2023-03-21T05:52:30.582Z,8.49
2023-03-21T05:55:33.969Z,8.40
2023-03-21T05:58:36.905Z,8.61
2023-03-21T06:01:41.792Z,8.66
2023-03-21T06:04:46.378Z,8.75
2023-03-21T06:07:49.451Z,8.69
2023-03-21T06:10:52.809Z,8.85
2023-03-21T06:13:55.803Z,8.96
2023-03-21T06:16:59.355Z,9.06
2023-03-21T06:20:05.148Z,8.82
2023-03-21T06:23:08.437Z,9.09
2023-03-21T06:26:11.514Z,9.18
2023-03-21T06:29:16.006Z,9.17
2023-03-21T06:32:22.499Z,9.22
2023-03-21T06:35:27.797Z,9.30
2023-03-21T06:38:31.751Z,9.32
2023-03-21T06:41:34.994Z,9.25
2023-03-21T06:44:38.160Z,9.36
2023-03-21T06:47:41.859Z,9.50
2023-03-21T06:50:48.957Z,9.66
2023-03-21T06:53:52.802Z,9.53
2023-03-21T06:56:56.940Z,9.66
2023-03-21T07:00:01.626Z,9.68
2023-03-21T07:03:04.817Z,9.65
2023-03-21T07:06:12.003Z,9.71
2023-03-21T07:09:17.908Z,9.60
2023-03-21T07:12:23.158Z,9.63
2023-03-21T07:15:27.352Z,9.66
2023-03-21T07:18:31.210Z,9.85
2023-03-21T07:21:34.271Z,9.92
2023-03-21T07:24:38.092Z,10.16
2023-03-21T07:27:41.576Z,10.30
2023-03-21T07:30:46.039Z,10.16
2023-03-21T07:33:50.353Z,10.09
2023-03-21T07:36:53.612Z,10.16
2023-03-21T07:39:56.558Z,9.88
2023-03-21T07:46:09.042Z,10.32
2023-03-21T07:49:12.281Z,10.11
2023-03-21T07:52:16.896Z,10.25
2023-03-21T07:55:21.018Z,10.45
2023-03-21T07:58:25.822Z,9.80
2023-03-21T08:01:30.433Z,10.06
2023-03-21T08:04:35.133Z,10.36
2023-03-21T08:07:42.113Z,10.16
2023-03-21T08:10:46.078Z,10.42
2023-03-21T08:13:49.663Z,10.31
2023-03-21T08:16:53.022Z,10.61
2023-03-21T08:19:56.012Z,10.78
2023-03-21T08:22:59.208Z,10.92
2023-03-21T08:26:02.690Z,10.79
2023-03-21T08:29:06.228Z,10.69
2023-03-21T08:32:09.288Z,11.03
2023-03-21T08:35:16.024Z,11.41
2023-03-21T08:38:19.054Z,10.84
2023-03-21T08:41:24.519Z,11.48
2023-03-21T08:44:29.880Z,11.14
2023-03-21T08:47:33.219Z,11.15
2023-03-21T08:50:36.211Z,11.69
2023-03-21T08:53:41.611Z,11.81
2023-03-21T08:56:44.661Z,11.79
2023-03-21T08:59:47.856Z,11.84
2023-03-21T09:02:52.538Z,12.06
2023-03-21T09:05:58.476Z,12.24
2023-03-21T09:09:02.709Z,12.27
2023-03-21T09:12:06.274Z,11.99
2023-03-21T09:15:12.226Z,12.33
2023-03-21T09:18:18.294Z,12.59
2023-03-21T09:21:22.988Z,12.83
2023-03-21T09:24:26.645Z,12.74
2023-03-21T09:27:29.876Z,12.95
2023-03-21T09:30:34.602Z,12.98
2023-03-21T09:33:40.302Z,13.12
2023-03-21T09:36:44.419Z,13.06
2023-03-21T09:39:47.416Z,13.44
2023-03-21T09:43:28.533Z,13.77
2023-03-21T09:47:07.296Z,14.34
2023-03-21T09:50:17.455Z,14.37
2023-03-21T09:53:27.773Z,14.50
2023-03-21T09:56:31.347Z,14.77
2023-03-21T09:59:41.258Z,15.07
2023-03-21T10:02:49.768Z,15.53
2023-03-21T10:05:58.854Z,15.47
2023-03-21T10:09:08.060Z,15.30
2023-03-21T10:12:22.499Z,15.45
2023-03-21T10:15:26.932Z,14.78
2023-03-21T10:18:31.594Z,15.04
2023-03-21T10:24:57.910Z,15.27
2023-03-21T10:28:02.582Z,15.30
2023-03-21T10:31:10.921Z,15.00
2023-03-21T10:34:20.894Z,15.06
2023-03-21T10:37:25.226Z,15.11
2023-03-21T10:40:28.504Z,14.76
2023-03-21T10:43:34.981Z,15.24
2023-03-21T10:46:38.570Z,15.35
2023-03-21T10:50:05.725Z,15.17
2023-03-21T10:53:16.625Z,15.06
2023-03-21T10:56:24.595Z,15.07
2023-03-21T10:59:38.887Z,14.80
2023-03-21T11:02:43.196Z,14.73
2023-03-21T11:05:46.435Z,14.70
2023-03-21T11:08:54.281Z,14.96
2023-03-21T11:12:09.753Z,15.31
2023-03-21T11:15:30.302Z,15.63
2023-03-21T11:18:33.550Z,16.17
2023-03-21T11:21:38.096Z,15.67
2023-03-21T11:24:43.717Z,15.44
2023-03-21T11:27:54.508Z,15.56
2023-03-21T11:31:00.905Z,16.06
2023-03-21T11:34:07.121Z,15.81
2023-03-21T11:37:24.947Z,15.60
2023-03-21T11:40:36.461Z,16.05
2023-03-21T11:43:40.053Z,16.05
2023-03-21T11:46:43.422Z,16.44
2023-03-21T11:49:48.153Z,16.89
2023-03-21T11:52:55.677Z,16.12
2023-03-21T11:56:05.939Z,16.03
2023-03-21T11:59:19.018Z,15.94
2023-03-21T12:02:55.304Z,16.55
2023-03-21T12:06:02.481Z,16.11
2023-03-21T12:09:14.268Z,15.71
2023-03-21T12:12:56.786Z,15.47
2023-03-21T12:16:13.418Z,16.41
2023-03-21T12:19:31.691Z,18.23
2023-03-21T12:23:02.322Z,18.34
2023-03-21T12:26:31.760Z,16.81
2023-03-21T12:29:50.636Z,17.48
2023-03-21T12:33:06.059Z,17.16
2023-03-21T12:36:16.629Z,16.54
2023-03-21T12:39:29.911Z,16.02
2023-03-21T12:42:48.324Z,15.90
2023-03-21T12:45:56.106Z,16.07
2023-03-21T12:49:03.071Z,17.58
2023-03-21T12:52:09.462Z,17.63
2023-03-21T12:55:44.909Z,19.01
2023-03-21T12:58:49.508Z,19.80
2023-03-21T13:01:55.805Z,19.33
2023-03-21T13:05:17.395Z,21.67
2023-03-21T13:08:49.317Z,20.56
2023-03-21T13:11:55.962Z,22.08
2023-03-21T13:15:35.494Z,20.70
2023-03-21T13:18:41.784Z,17.41
2023-03-21T13:21:59.411Z,16.96
2023-03-21T13:25:17.690Z,18.12
2023-03-21T13:28:31.862Z,20.11
2023-03-21T13:31:50.896Z,20.94
2023-03-21T13:34:56.607Z,21.09
2023-03-21T13:38:12.986Z,21.67
2023-03-21T13:41:19.589Z,22.38
2023-03-21T13:44:49.652Z,22.33
2023-03-21T13:47:57.079Z,22.76
2023-03-21T13:51:05.263Z,20.33
2023-03-21T13:54:08.113Z,18.82
2023-03-21T13:57:23.210Z,17.54
2023-03-21T14:00:30.359Z,17.35
2023-03-21T14:03:35.268Z,16.07
2023-03-21T14:06:51.972Z,15.94
2023-03-21T14:10:05.904Z,15.88
2023-03-21T14:13:12.264Z,16.16
2023-03-21T14:16:19.711Z,15.47
2023-03-21T14:19:31.630Z,15.46
2023-03-21T14:22:34.944Z,15.42
2023-03-21T14:25:46.774Z,15.45
2023-03-21T14:28:53.120Z,15.99
2023-03-21T14:31:57.055Z,15.68
2023-03-21T14:35:01.517Z,16.87
2023-03-21T14:38:07.548Z,17.73
2023-03-21T14:41:27.241Z,19.10
2023-03-21T14:44:53.832Z,19.91
2023-03-21T14:48:05.840Z,20.50
2023-03-21T14:51:12.372Z,21.11
2023-03-21T14:54:17.910Z,22.01
2023-03-21T14:57:25.191Z,24.88
2023-03-21T15:00:31.762Z,24.03
2023-03-21T15:03:34.987Z,25.87
2023-03-21T15:06:53.664Z,23.04
2023-03-21T15:10:00.956Z,21.28
2023-03-21T15:13:22.944Z,18.88
2023-03-21T15:16:26.064Z,19.87
2023-03-21T15:19:33.961Z,20.38
2023-03-21T15:22:39.897Z,20.20
2023-03-21T15:25:43.662Z,20.68
2023-03-21T15:28:49.200Z,20.60
2023-03-21T15:31:52.861Z,20.72
2023-03-21T15:35:07.872Z,20.12
2023-03-21T15:38:33.163Z,19.26
2023-03-21T15:41:35.995Z,20.66
2023-03-21T15:44:49.622Z,20.06
2023-03-21T15:47:55.763Z,20.79
2023-03-21T15:51:04.763Z,20.19
2023-03-21T15:54:15.144Z,19.67
2023-03-21T15:57:24.543Z,20.76
2023-03-21T16:00:41.779Z,20.82
2023-03-21T16:03:48.090Z,20.77
2023-03-21T16:06:53.728Z,20.05
2023-03-21T16:10:01.627Z,20.31
2023-03-21T16:13:05.266Z,21.58
2023-03-21T16:16:16.381Z,19.32
2023-03-21T16:19:19.476Z,19.42
2023-03-21T16:22:22.671Z,19.43
2023-03-21T16:25:25.827Z,19.97
2023-03-21T16:28:29.440Z,20.26
2023-03-21T16:31:34.547Z,19.15
2023-03-21T16:34:38.111Z,18.52
2023-03-21T16:37:41.098Z,17.57
2023-03-21T16:40:45.184Z,17.72
2023-03-21T16:43:48.533Z,18.27
2023-03-21T16:46:51.995Z,17.97
2023-03-21T16:49:56.047Z,17.49
2023-03-21T16:53:00.208Z,17.59
2023-03-21T16:56:05.376Z,16.75
2023-03-21T16:59:12.624Z,16.13
2023-03-21T17:02:18.618Z,15.49
2023-03-21T17:05:23.295Z,15.28
2023-03-21T17:08:28.361Z,14.80
2023-03-21T17:11:36.217Z,14.57
2023-03-21T17:14:40.026Z,14.47
2023-03-21T17:17:44.283Z,14.15
2023-03-21T17:20:47.422Z,14.30
2023-03-21T17:23:51.097Z,14.29
2023-03-21T17:26:54.297Z,14.10
2023-03-21T17:29:58.400Z,13.79
2023-03-21T17:33:01.832Z,13.49
2023-03-21T17:36:06.400Z,13.35
2023-03-21T17:39:15.141Z,12.91
2023-03-21T17:42:20.639Z,12.72
2023-03-21T17:45:24.808Z,12.61
2023-03-21T17:48:29.165Z,12.51
2023-03-21T17:51:33.272Z,12.80
2023-03-21T17:54:37.479Z,12.74
2023-03-21T17:57:42.901Z,12.72
2023-03-21T18:00:47.477Z,12.61
2023-03-21T18:03:51.597Z,12.41
2023-03-21T18:06:59.835Z,12.52
2023-03-21T18:10:05.174Z,12.43
2023-03-21T18:13:08.948Z,12.38
2023-03-21T18:16:16.947Z,12.34
2023-03-21T18:19:21.042Z,12.40
2023-03-21T18:22:24.960Z,12.32
2023-03-21T18:25:29.647Z,12.15
2023-03-21T18:28:33.595Z,11.98
2023-03-21T18:31:37.806Z,11.83
2023-03-21T18:34:43.553Z,11.75
2023-03-21T18:37:49.067Z,11.91
2023-03-21T18:40:56.356Z,11.76
2023-03-21T18:44:09.197Z,11.71
2023-03-21T18:47:20.965Z,11.63
2023-03-21T18:50:25.404Z,11.63
2023-03-21T18:53:32.672Z,11.63
2023-03-21T18:57:26.774Z,11.51
2023-03-21T19:00:10.121Z,11.43
2023-03-21T19:03:24.764Z,11.33
2023-03-21T19:06:37.525Z,11.40
2023-03-21T19:10:05.178Z,11.37
2023-03-21T19:13:09.332Z,11.19
2023-03-21T19:16:15.019Z,11.24
2023-03-21T19:19:24.704Z,11.01
2023-03-21T19:22:30.184Z,11.03
2023-03-21T19:25:36.523Z,10.90
2023-03-21T19:28:41.728Z,10.74
2023-03-21T19:31:47.051Z,10.66
2023-03-21T19:34:52.664Z,10.65
2023-03-21T19:38:00.691Z,10.54
2023-03-21T19:41:05.899Z,10.40
2023-03-21T19:44:10.982Z,10.38
2023-03-21T19:47:17.743Z,10.26
2023-03-21T19:50:57.754Z,10.27
2023-03-21T19:53:53.374Z,10.25
2023-03-21T19:56:58.340Z,10.22
2023-03-21T20:00:03.233Z,10.29
2023-03-21T20:03:11.835Z,10.24
2023-03-21T20:06:17.548Z,10.33
2023-03-21T20:09:51.253Z,10.28
2023-03-21T20:12:48.304Z,10.30
2023-03-21T20:16:03.509Z,10.13
2023-03-21T20:19:12.256Z,10.15
2023-03-21T20:22:27.582Z,10.13
2023-03-21T20:25:46.288Z,10.06
2023-03-21T20:29:21.707Z,9.94
2023-03-21T20:32:24.259Z,9.85
2023-03-21T20:36:16.440Z,9.91
2023-03-21T20:38:53.931Z,9.89
2023-03-21T20:41:59.575Z,9.86
2023-03-21T20:45:06.593Z,9.86
2023-03-21T20:48:11.587Z,9.79
2023-03-21T20:54:42.324Z,9.38
2023-03-21T20:57:48.561Z,9.25
2023-03-21T21:00:52.273Z,9.21
2023-03-21T21:03:57.635Z,9.18
2023-03-21T21:07:01.758Z,9.13
2023-03-21T21:10:05.962Z,9.12
2023-03-21T21:13:09.604Z,9.16
2023-03-21T21:16:15.719Z,9.08
2023-03-21T21:19:21.821Z,9.08
2023-03-21T21:22:25.532Z,9.06
2023-03-21T21:25:30.750Z,8.96
2023-03-21T21:28:34.903Z,8.97
2023-03-21T21:31:39.097Z,8.91
2023-03-21T21:34:43.800Z,8.89
2023-03-21T21:37:47.450Z,8.82
2023-03-21T21:40:52.207Z,8.72
2023-03-21T21:43:56.559Z,8.73
2023-03-21T21:46:59.913Z,8.71
2023-03-21T21:50:03.152Z,8.75
2023-03-21T21:53:06.351Z,8.78
2023-03-21T21:56:10.106Z,8.76
2023-03-21T21:59:16.188Z,8.76
2023-03-21T22:02:19.367Z,8.82
2023-03-21T22:05:22.694Z,8.78
2023-03-21T22:08:25.629Z,8.68
2023-03-21T22:11:28.866Z,8.58
2023-03-21T22:14:31.804Z,8.51
2023-03-21T22:17:36.375Z,8.41
2023-03-21T22:20:39.398Z,8.36
2023-03-21T22:23:43.551Z,8.25
2023-03-21T22:26:46.895Z,8.16
2023-03-21T22:29:50.589Z,8.16
2023-03-21T22:33:08.149Z,8.18
2023-03-21T22:36:12.531Z,8.18
2023-03-21T22:39:15.614Z,8.25
2023-03-21T22:42:18.792Z,8.17
2023-03-21T22:45:22.812Z,8.07
2023-03-21T22:48:30.096Z,7.96
2023-03-21T22:51:34.222Z,7.82
2023-03-21T22:54:39.079Z,7.75
2023-03-21T22:57:43.159Z,7.69
2023-03-21T23:00:47.424Z,7.66
2023-03-21T23:03:51.749Z,7.67
2023-03-21T23:06:54.969Z,7.66
2023-03-21T23:09:57.982Z,7.53
2023-03-21T23:13:01.185Z,7.44
2023-03-21T23:16:07.550Z,7.41
2023-03-21T23:19:11.203Z,7.40
2023-03-21T23:22:14.172Z,7.43
2023-03-21T23:25:20.630Z,7.57
2023-03-21T23:28:23.587Z,7.59
2023-03-21T23:31:27.784Z,7.60
2023-03-21T23:34:49.503Z,7.61
2023-03-21T23:37:53.652Z,7.61
2023-03-21T23:40:57.022Z,7.55
2023-03-21T23:44:00.677Z,7.44
2023-03-21T23:47:03.613Z,7.35
2023-03-21T23:50:09.689Z,7.33
2023-03-21T23:53:12.586Z,7.28
2023-03-21T23:56:21.611Z,7.37
2023-03-21T23:59:24.531Z,7.28
